sensor_id;sensor_type;location;lat;lon;timestamp;temperature;humidity
28761;DHT22;15917;50.014;8.352;2022-12-29T00:02:22;10.50;99.90
28761;DHT22;15917;50.014;8.352;2022-12-29T00:04:49;10.50;99.90
28761;DHT22;15917;50.014;8.352;2022-12-29T00:07:15;10.60;99.90
28761;DHT22;15917;50.014;8.352;2022-12-29T00:09:41;10.70;99.90
28761;DHT22;15917;50.014;8.352;2022-12-29T00:12:06;10.60;99.90
28761;DHT22;15917;50.014;8.352;2022-12-29T00:14:32;10.60;99.90
28761;DHT22;15917;50.014;8.352;2022-12-29T00:17:16;10.70;99.90
28761;DHT22;15917;50.014;8.352;2022-12-29T00:19:41;10.80;99.90
28761;DHT22;15917;50.014;8.352;2022-12-29T00:22:26;10.80;99.90
28761;DHT22;15917;50.014;8.352;2022-12-29T00:25:11;10.90;99.90
28761;DHT22;15917;50.014;8.352;2022-12-29T00:27:56;10.90;99.90
28761;DHT22;15917;50.014;8.352;2022-12-29T00:30:41;11.00;99.90
28761;DHT22;15917;50.014;8.352;2022-12-29T00:33:28;11.00;99.90
28761;DHT22;15917;50.014;8.352;2022-12-29T00:36:18;11.00;99.90
28761;DHT22;15917;50.014;8.352;2022-12-29T00:38:51;11.00;99.90
28761;DHT22;15917;50.014;8.352;2022-12-29T00:41:36;11.00;99.90
28761;DHT22;15917;50.014;8.352;2022-12-29T00:44:21;11.00;99.90
28761;DHT22;15917;50.014;8.352;2022-12-29T00:46:46;11.00;99.90
28761;DHT22;15917;50.014;8.352;2022-12-29T00:49:13;11.00;99.90
28761;DHT22;15917;50.014;8.352;2022-12-29T00:52:17;11.00;99.90
28761;DHT22;15917;50.014;8.352;2022-12-29T00:54:44;11.00;99.90
28761;DHT22;15917;50.014;8.352;2022-12-29T00:57:10;10.90;99.90
28761;DHT22;15917;50.014;8.352;2022-12-29T00:59:39;10.90;99.90
28761;DHT22;15917;50.014;8.352;2022-12-29T01:02:04;10.90;99.90
28761;DHT22;15917;50.014;8.352;2022-12-29T01:04:30;10.90;99.90
28761;DHT22;15917;50.014;8.352;2022-12-29T01:06:56;10.80;99.90
28761;DHT22;15917;50.014;8.352;2022-12-29T01:09:22;10.80;99.90
28761;DHT22;15917;50.014;8.352;2022-12-29T01:12:08;10.80;99.90
28761;DHT22;15917;50.014;8.352;2022-12-29T01:14:34;10.80;99.90
28761;DHT22;15917;50.014;8.352;2022-12-29T01:16:59;10.80;99.90
28761;DHT22;15917;50.014;8.352;2022-12-29T01:19:25;10.70;99.90
28761;DHT22;15917;50.014;8.352;2022-12-29T01:21:51;10.70;99.90
28761;DHT22;15917;50.014;8.352;2022-12-29T01:24:19;10.80;99.90
28761;DHT22;15917;50.014;8.352;2022-12-29T01:26:45;10.80;99.90
28761;DHT22;15917;50.014;8.352;2022-12-29T01:29:12;10.80;99.90
28761;DHT22;15917;50.014;8.352;2022-12-29T01:31:38;10.80;99.90
28761;DHT22;15917;50.014;8.352;2022-12-29T01:34:04;10.80;99.90
28761;DHT22;15917;50.014;8.352;2022-12-29T01:36:31;10.80;99.90
28761;DHT22;15917;50.014;8.352;2022-12-29T01:38:57;10.80;99.90
28761;DHT22;15917;50.014;8.352;2022-12-29T01:41:23;10.80;99.90
28761;DHT22;15917;50.014;8.352;2022-12-29T01:43:52;10.80;99.90
28761;DHT22;15917;50.014;8.352;2022-12-29T01:46:38;10.80;99.90
28761;DHT22;15917;50.014;8.352;2022-12-29T01:51:45;10.90;99.90
28761;DHT22;15917;50.014;8.352;2022-12-29T01:54:35;10.90;99.90
28761;DHT22;15917;50.014;8.352;2022-12-29T01:57:03;10.90;99.90
28761;DHT22;15917;50.014;8.352;2022-12-29T01:59:33;10.90;99.90
28761;DHT22;15917;50.014;8.352;2022-12-29T02:02:00;10.90;99.90
28761;DHT22;15917;50.014;8.352;2022-12-29T02:04:26;11.00;99.90
28761;DHT22;15917;50.014;8.352;2022-12-29T02:07:01;11.00;99.90
28761;DHT22;15917;50.014;8.352;2022-12-29T02:09:28;11.00;99.90
28761;DHT22;15917;50.014;8.352;2022-12-29T02:11:54;11.00;99.90
28761;DHT22;15917;50.014;8.352;2022-12-29T02:14:20;11.10;99.90
28761;DHT22;15917;50.014;8.352;2022-12-29T02:20:05;11.10;99.90
28761;DHT22;15917;50.014;8.352;2022-12-29T02:22:49;11.00;99.90
28761;DHT22;15917;50.014;8.352;2022-12-29T02:31:41;11.10;99.90
28761;DHT22;15917;50.014;8.352;2022-12-29T02:37:25;11.00;99.90
28761;DHT22;15917;50.014;8.352;2022-12-29T02:40:13;11.00;99.90
28761;DHT22;15917;50.014;8.352;2022-12-29T02:45:42;10.90;99.90
28761;DHT22;15917;50.014;8.352;2022-12-29T02:48:32;10.90;99.90
28761;DHT22;15917;50.014;8.352;2022-12-29T02:51:07;10.90;99.90
28761;DHT22;15917;50.014;8.352;2022-12-29T02:53:36;10.80;99.90
28761;DHT22;15917;50.014;8.352;2022-12-29T02:56:21;10.80;99.90
28761;DHT22;15917;50.014;8.352;2022-12-29T02:58:47;10.80;99.90
28761;DHT22;15917;50.014;8.352;2022-12-29T03:05:12;10.80;99.90
28761;DHT22;15917;50.014;8.352;2022-12-29T03:07:29;10.80;99.90
28761;DHT22;15917;50.014;8.352;2022-12-29T03:10:09;10.80;99.90
28761;DHT22;15917;50.014;8.352;2022-12-29T03:12:54;10.80;99.90
28761;DHT22;15917;50.014;8.352;2022-12-29T03:15:44;10.70;99.90
28761;DHT22;15917;50.014;8.352;2022-12-29T03:21:44;10.80;99.90
28761;DHT22;15917;50.014;8.352;2022-12-29T03:24:40;10.80;99.90
28761;DHT22;15917;50.014;8.352;2022-12-29T03:27:07;10.80;99.90
28761;DHT22;15917;50.014;8.352;2022-12-29T03:29:42;10.80;99.90
28761;DHT22;15917;50.014;8.352;2022-12-29T03:32:11;10.80;99.90
28761;DHT22;15917;50.014;8.352;2022-12-29T03:34:38;10.80;99.90
28761;DHT22;15917;50.014;8.352;2022-12-29T03:37:13;10.80;99.90
28761;DHT22;15917;50.014;8.352;2022-12-29T03:39:40;10.90;99.90
28761;DHT22;15917;50.014;8.352;2022-12-29T03:42:10;10.90;99.90
28761;DHT22;15917;50.014;8.352;2022-12-29T03:44:39;10.90;99.90
28761;DHT22;15917;50.014;8.352;2022-12-29T03:47:07;10.90;99.90
28761;DHT22;15917;50.014;8.352;2022-12-29T03:49:35;11.00;99.90
28761;DHT22;15917;50.014;8.352;2022-12-29T03:52:03;11.00;99.90
28761;DHT22;15917;50.014;8.352;2022-12-29T03:54:30;11.10;99.90
28761;DHT22;15917;50.014;8.352;2022-12-29T03:56:56;11.10;99.90
28761;DHT22;15917;50.014;8.352;2022-12-29T03:59:34;11.10;99.90
28761;DHT22;15917;50.014;8.352;2022-12-29T04:02:00;11.10;99.90
28761;DHT22;15917;50.014;8.352;2022-12-29T04:04:26;11.20;99.90
28761;DHT22;15917;50.014;8.352;2022-12-29T04:06:52;11.20;99.90
28761;DHT22;15917;50.014;8.352;2022-12-29T04:09:18;11.20;99.90
28761;DHT22;15917;50.014;8.352;2022-12-29T04:11:47;11.20;99.90
28761;DHT22;15917;50.014;8.352;2022-12-29T04:14:13;11.20;99.90
28761;DHT22;15917;50.014;8.352;2022-12-29T04:16:39;11.20;99.90
28761;DHT22;15917;50.014;8.352;2022-12-29T04:19:06;11.20;99.90
28761;DHT22;15917;50.014;8.352;2022-12-29T04:21:33;11.20;99.90
28761;DHT22;15917;50.014;8.352;2022-12-29T04:23:59;11.20;99.90
28761;DHT22;15917;50.014;8.352;2022-12-29T04:26:25;11.20;99.90
28761;DHT22;15917;50.014;8.352;2022-12-29T04:29:00;11.20;99.90
28761;DHT22;15917;50.014;8.352;2022-12-29T04:31:38;11.20;99.90
28761;DHT22;15917;50.014;8.352;2022-12-29T04:34:05;11.30;99.90
28761;DHT22;15917;50.014;8.352;2022-12-29T04:36:31;11.30;99.90
28761;DHT22;15917;50.014;8.352;2022-12-29T04:38:57;11.20;99.90
28761;DHT22;15917;50.014;8.352;2022-12-29T04:41:23;11.30;99.90
28761;DHT22;15917;50.014;8.352;2022-12-29T04:43:49;11.30;99.90
28761;DHT22;15917;50.014;8.352;2022-12-29T04:46:33;11.30;99.90
28761;DHT22;15917;50.014;8.352;2022-12-29T04:49:03;11.30;99.90
28761;DHT22;15917;50.014;8.352;2022-12-29T04:51:59;11.30;99.90
28761;DHT22;15917;50.014;8.352;2022-12-29T04:54:25;11.30;99.90
28761;DHT22;15917;50.014;8.352;2022-12-29T04:57:03;11.30;99.90
28761;DHT22;15917;50.014;8.352;2022-12-29T04:59:28;11.30;99.90
28761;DHT22;15917;50.014;8.352;2022-12-29T05:01:57;11.30;99.90
28761;DHT22;15917;50.014;8.352;2022-12-29T05:04:23;11.20;99.90
28761;DHT22;15917;50.014;8.352;2022-12-29T05:06:49;11.10;99.90
28761;DHT22;15917;50.014;8.352;2022-12-29T05:09:16;11.10;99.90
28761;DHT22;15917;50.014;8.352;2022-12-29T05:11:42;11.10;99.90
28761;DHT22;15917;50.014;8.352;2022-12-29T05:14:08;11.00;99.90
28761;DHT22;15917;50.014;8.352;2022-12-29T05:16:35;11.00;99.90
28761;DHT22;15917;50.014;8.352;2022-12-29T05:19:01;10.90;99.90
28761;DHT22;15917;50.014;8.352;2022-12-29T05:21:27;10.90;99.90
28761;DHT22;15917;50.014;8.352;2022-12-29T05:23:54;10.90;99.90
28761;DHT22;15917;50.014;8.352;2022-12-29T05:26:21;10.90;99.90
28761;DHT22;15917;50.014;8.352;2022-12-29T05:28:56;10.80;99.90
28761;DHT22;15917;50.014;8.352;2022-12-29T05:31:22;10.80;99.90
28761;DHT22;15917;50.014;8.352;2022-12-29T05:33:47;10.80;99.90
28761;DHT22;15917;50.014;8.352;2022-12-29T05:36:13;10.80;99.90
28761;DHT22;15917;50.014;8.352;2022-12-29T05:38:43;10.80;99.90
28761;DHT22;15917;50.014;8.352;2022-12-29T05:41:09;10.90;99.90
28761;DHT22;15917;50.014;8.352;2022-12-29T05:43:54;10.90;99.90
28761;DHT22;15917;50.014;8.352;2022-12-29T05:46:29;10.90;99.90
28761;DHT22;15917;50.014;8.352;2022-12-29T05:49:04;10.90;99.90
28761;DHT22;15917;50.014;8.352;2022-12-29T05:51:50;10.90;99.90
28761;DHT22;15917;50.014;8.352;2022-12-29T05:54:16;10.90;99.90
28761;DHT22;15917;50.014;8.352;2022-12-29T05:56:41;11.00;99.90
28761;DHT22;15917;50.014;8.352;2022-12-29T05:59:07;11.00;99.90
28761;DHT22;15917;50.014;8.352;2022-12-29T06:01:33;11.00;99.90
28761;DHT22;15917;50.014;8.352;2022-12-29T06:04:00;11.00;99.90
28761;DHT22;15917;50.014;8.352;2022-12-29T06:06:25;11.10;99.90
28761;DHT22;15917;50.014;8.352;2022-12-29T06:08:52;11.10;99.90
28761;DHT22;15917;50.014;8.352;2022-12-29T06:11:18;11.10;99.90
28761;DHT22;15917;50.014;8.352;2022-12-29T06:13:50;11.20;99.90
28761;DHT22;15917;50.014;8.352;2022-12-29T06:16:16;11.20;99.90
28761;DHT22;15917;50.014;8.352;2022-12-29T06:18:42;11.30;99.90
28761;DHT22;15917;50.014;8.352;2022-12-29T06:21:09;11.30;99.90
28761;DHT22;15917;50.014;8.352;2022-12-29T06:23:36;11.40;99.90
28761;DHT22;15917;50.014;8.352;2022-12-29T06:26:03;11.40;99.90
28761;DHT22;15917;50.014;8.352;2022-12-29T06:28:29;11.50;99.90
28761;DHT22;15917;50.014;8.352;2022-12-29T06:30:54;11.60;99.90
28761;DHT22;15917;50.014;8.352;2022-12-29T06:33:20;11.70;99.90
28761;DHT22;15917;50.014;8.352;2022-12-29T06:35:46;11.70;99.90
28761;DHT22;15917;50.014;8.352;2022-12-29T06:38:12;11.70;99.90
28761;DHT22;15917;50.014;8.352;2022-12-29T06:40:37;11.70;99.90
28761;DHT22;15917;50.014;8.352;2022-12-29T06:43:09;11.70;99.90
28761;DHT22;15917;50.014;8.352;2022-12-29T06:45:58;11.70;99.90
28761;DHT22;15917;50.014;8.352;2022-12-29T06:48:24;11.70;99.90
28761;DHT22;15917;50.014;8.352;2022-12-29T06:50:50;11.70;99.90
28761;DHT22;15917;50.014;8.352;2022-12-29T06:53:15;11.60;99.90
28761;DHT22;15917;50.014;8.352;2022-12-29T06:55:41;11.60;99.90
28761;DHT22;15917;50.014;8.352;2022-12-29T06:58:07;11.60;99.90
28761;DHT22;15917;50.014;8.352;2022-12-29T07:00:33;11.60;99.90
28761;DHT22;15917;50.014;8.352;2022-12-29T07:02:58;11.60;99.90
28761;DHT22;15917;50.014;8.352;2022-12-29T07:05:24;11.60;99.90
28761;DHT22;15917;50.014;8.352;2022-12-29T07:07:53;11.50;99.90
28761;DHT22;15917;50.014;8.352;2022-12-29T07:10:19;11.50;99.90
28761;DHT22;15917;50.014;8.352;2022-12-29T07:12:44;11.60;99.90
28761;DHT22;15917;50.014;8.352;2022-12-29T07:15:10;11.60;99.90
28761;DHT22;15917;50.014;8.352;2022-12-29T07:17:36;11.60;99.90
28761;DHT22;15917;50.014;8.352;2022-12-29T07:20:01;11.70;99.90
28761;DHT22;15917;50.014;8.352;2022-12-29T07:22:27;11.70;99.90
28761;DHT22;15917;50.014;8.352;2022-12-29T07:24:52;11.70;99.90
28761;DHT22;15917;50.014;8.352;2022-12-29T07:27:18;11.70;99.90
28761;DHT22;15917;50.014;8.352;2022-12-29T07:29:44;11.70;99.90
28761;DHT22;15917;50.014;8.352;2022-12-29T07:32:09;11.80;99.90
28761;DHT22;15917;50.014;8.352;2022-12-29T07:34:35;11.80;99.90
28761;DHT22;15917;50.014;8.352;2022-12-29T07:37:00;11.80;99.90
28761;DHT22;15917;50.014;8.352;2022-12-29T07:39:26;11.90;99.90
28761;DHT22;15917;50.014;8.352;2022-12-29T07:41:51;11.90;99.90
28761;DHT22;15917;50.014;8.352;2022-12-29T07:44:19;11.90;99.90
28761;DHT22;15917;50.014;8.352;2022-12-29T07:47:03;11.90;99.90
28761;DHT22;15917;50.014;8.352;2022-12-29T07:49:29;11.90;99.90
28761;DHT22;15917;50.014;8.352;2022-12-29T07:51:54;11.90;99.90
28761;DHT22;15917;50.014;8.352;2022-12-29T07:54:20;11.80;99.90
28761;DHT22;15917;50.014;8.352;2022-12-29T07:56:45;11.80;99.90
28761;DHT22;15917;50.014;8.352;2022-12-29T07:59:11;11.80;99.90
28761;DHT22;15917;50.014;8.352;2022-12-29T08:01:38;11.80;99.90
28761;DHT22;15917;50.014;8.352;2022-12-29T08:04:04;11.80;99.90
28761;DHT22;15917;50.014;8.352;2022-12-29T08:06:29;11.70;99.90
28761;DHT22;15917;50.014;8.352;2022-12-29T08:08:56;11.70;99.90
28761;DHT22;15917;50.014;8.352;2022-12-29T08:11:22;11.70;99.90
28761;DHT22;15917;50.014;8.352;2022-12-29T08:13:48;11.70;99.90
28761;DHT22;15917;50.014;8.352;2022-12-29T08:16:13;11.70;99.90
28761;DHT22;15917;50.014;8.352;2022-12-29T08:18:39;11.60;99.90
28761;DHT22;15917;50.014;8.352;2022-12-29T08:21:05;11.60;99.90
28761;DHT22;15917;50.014;8.352;2022-12-29T08:23:31;11.60;99.90
28761;DHT22;15917;50.014;8.352;2022-12-29T08:25:59;11.60;99.90
28761;DHT22;15917;50.014;8.352;2022-12-29T08:28:24;11.60;99.90
28761;DHT22;15917;50.014;8.352;2022-12-29T08:30:50;11.60;99.90
28761;DHT22;15917;50.014;8.352;2022-12-29T08:33:16;11.70;99.90
28761;DHT22;15917;50.014;8.352;2022-12-29T08:35:44;11.60;99.90
28761;DHT22;15917;50.014;8.352;2022-12-29T08:38:10;11.60;99.90
28761;DHT22;15917;50.014;8.352;2022-12-29T08:40:38;11.60;99.90
28761;DHT22;15917;50.014;8.352;2022-12-29T08:43:04;11.60;99.90
28761;DHT22;15917;50.014;8.352;2022-12-29T08:45:29;11.60;99.90
28761;DHT22;15917;50.014;8.352;2022-12-29T08:47:55;11.60;99.90
28761;DHT22;15917;50.014;8.352;2022-12-29T08:50:21;11.60;99.90
28761;DHT22;15917;50.014;8.352;2022-12-29T08:52:46;11.50;99.90
28761;DHT22;15917;50.014;8.352;2022-12-29T08:55:12;11.50;99.90
28761;DHT22;15917;50.014;8.352;2022-12-29T08:57:38;11.40;99.90
28761;DHT22;15917;50.014;8.352;2022-12-29T09:00:10;11.40;99.90
28761;DHT22;15917;50.014;8.352;2022-12-29T09:02:36;11.30;99.90
28761;DHT22;15917;50.014;8.352;2022-12-29T09:05:02;11.20;99.90
28761;DHT22;15917;50.014;8.352;2022-12-29T09:07:27;11.10;99.90
28761;DHT22;15917;50.014;8.352;2022-12-29T09:09:53;11.10;99.90
28761;DHT22;15917;50.014;8.352;2022-12-29T09:12:19;11.10;99.90
28761;DHT22;15917;50.014;8.352;2022-12-29T09:14:46;11.10;99.90
28761;DHT22;15917;50.014;8.352;2022-12-29T09:17:12;11.00;99.90
28761;DHT22;15917;50.014;8.352;2022-12-29T09:19:56;11.00;99.90
28761;DHT22;15917;50.014;8.352;2022-12-29T09:22:21;11.00;99.90
28761;DHT22;15917;50.014;8.352;2022-12-29T09:24:47;10.90;99.90
28761;DHT22;15917;50.014;8.352;2022-12-29T09:27:13;10.80;99.90
28761;DHT22;15917;50.014;8.352;2022-12-29T09:29:38;10.80;99.90
28761;DHT22;15917;50.014;8.352;2022-12-29T09:32:04;10.80;99.90
28761;DHT22;15917;50.014;8.352;2022-12-29T09:34:30;10.70;99.90
28761;DHT22;15917;50.014;8.352;2022-12-29T09:36:55;10.70;99.90
28761;DHT22;15917;50.014;8.352;2022-12-29T09:39:22;10.60;99.90
28761;DHT22;15917;50.014;8.352;2022-12-29T09:42:15;10.60;99.90
28761;DHT22;15917;50.014;8.352;2022-12-29T09:47:28;10.60;99.90
28761;DHT22;15917;50.014;8.352;2022-12-29T09:49:58;10.60;99.90
28761;DHT22;15917;50.014;8.352;2022-12-29T09:53:05;10.60;99.90
28761;DHT22;15917;50.014;8.352;2022-12-29T09:55:49;10.60;99.90
28761;DHT22;15917;50.014;8.352;2022-12-29T09:58:35;10.60;99.90
28761;DHT22;15917;50.014;8.352;2022-12-29T10:03:54;10.60;99.90
28761;DHT22;15917;50.014;8.352;2022-12-29T10:06:24;10.60;99.90
28761;DHT22;15917;50.014;8.352;2022-12-29T10:09:19;10.50;99.90
28761;DHT22;15917;50.014;8.352;2022-12-29T10:11:56;10.50;99.90
28761;DHT22;15917;50.014;8.352;2022-12-29T10:25:43;10.50;99.90
28761;DHT22;15917;50.014;8.352;2022-12-29T10:28:35;10.60;99.90
28761;DHT22;15917;50.014;8.352;2022-12-29T10:31:07;10.60;99.90
28761;DHT22;15917;50.014;8.352;2022-12-29T10:33:37;10.60;99.90
28761;DHT22;15917;50.014;8.352;2022-12-29T10:39:23;10.70;99.90
28761;DHT22;15917;50.014;8.352;2022-12-29T10:42:08;10.70;99.90
28761;DHT22;15917;50.014;8.352;2022-12-29T10:44:35;10.70;99.90
28761;DHT22;15917;50.014;8.352;2022-12-29T10:47:10;10.80;99.90
28761;DHT22;15917;50.014;8.352;2022-12-29T10:49:40;10.90;99.90
28761;DHT22;15917;50.014;8.352;2022-12-29T10:52:08;10.90;99.90
28761;DHT22;15917;50.014;8.352;2022-12-29T10:57:28;11.00;99.90
28761;DHT22;15917;50.014;8.352;2022-12-29T10:59:57;11.60;99.90
28761;DHT22;15917;50.014;8.352;2022-12-29T11:05:23;12.50;99.90
28761;DHT22;15917;50.014;8.352;2022-12-29T11:07:57;12.90;99.90
28761;DHT22;15917;50.014;8.352;2022-12-29T11:10:36;13.30;99.90
28761;DHT22;15917;50.014;8.352;2022-12-29T11:13:03;13.20;99.90
28761;DHT22;15917;50.014;8.352;2022-12-29T11:15:46;13.10;99.90
28761;DHT22;15917;50.014;8.352;2022-12-29T11:18:26;13.40;99.90
28761;DHT22;15917;50.014;8.352;2022-12-29T11:20:55;13.70;99.90
28761;DHT22;15917;50.014;8.352;2022-12-29T11:23:41;13.80;99.90
28761;DHT22;15917;50.014;8.352;2022-12-29T11:26:17;14.10;99.90
28761;DHT22;15917;50.014;8.352;2022-12-29T11:29:04;14.00;99.90
28761;DHT22;15917;50.014;8.352;2022-12-29T11:31:31;13.90;99.90
28761;DHT22;15917;50.014;8.352;2022-12-29T11:34:06;14.30;99.90
28761;DHT22;15917;50.014;8.352;2022-12-29T11:36:33;14.60;99.90
28761;DHT22;15917;50.014;8.352;2022-12-29T11:38:59;14.90;99.90
28761;DHT22;15917;50.014;8.352;2022-12-29T11:41:27;14.90;99.90
28761;DHT22;15917;50.014;8.352;2022-12-29T11:43:56;14.60;99.90
28761;DHT22;15917;50.014;8.352;2022-12-29T11:46:34;14.30;99.90
28761;DHT22;15917;50.014;8.352;2022-12-29T11:49:02;14.20;99.90
28761;DHT22;15917;50.014;8.352;2022-12-29T11:51:34;14.20;99.90
28761;DHT22;15917;50.014;8.352;2022-12-29T11:54:04;14.10;99.90
28761;DHT22;15917;50.014;8.352;2022-12-29T11:56:39;14.00;99.90
28761;DHT22;15917;50.014;8.352;2022-12-29T12:02:01;14.00;99.90
28761;DHT22;15917;50.014;8.352;2022-12-29T12:04:36;14.00;99.90
28761;DHT22;15917;50.014;8.352;2022-12-29T12:09:47;14.40;99.90
28761;DHT22;15917;50.014;8.352;2022-12-29T12:12:27;14.30;99.90
28761;DHT22;15917;50.014;8.352;2022-12-29T12:14:55;13.90;99.90
28761;DHT22;15917;50.014;8.352;2022-12-29T12:17:56;13.50;99.90
28761;DHT22;15917;50.014;8.352;2022-12-29T12:20:34;13.20;99.90
28761;DHT22;15917;50.014;8.352;2022-12-29T12:23:26;12.90;99.90
28761;DHT22;15917;50.014;8.352;2022-12-29T12:28:39;12.80;99.90
28761;DHT22;15917;50.014;8.352;2022-12-29T12:34:00;12.60;99.90
28761;DHT22;15917;50.014;8.352;2022-12-29T12:36:49;12.50;99.90
28761;DHT22;15917;50.014;8.352;2022-12-29T12:48:18;12.20;99.90
28761;DHT22;15917;50.014;8.352;2022-12-29T12:51:13;12.20;99.90
28761;DHT22;15917;50.014;8.352;2022-12-29T13:10:49;12.70;99.90
28761;DHT22;15917;50.014;8.352;2022-12-29T13:13:35;13.10;99.90
28761;DHT22;15917;50.014;8.352;2022-12-29T13:22:01;13.50;99.90
28761;DHT22;15917;50.014;8.352;2022-12-29T13:24:50;13.40;99.90
28761;DHT22;15917;50.014;8.352;2022-12-29T13:30:12;13.20;99.90
28761;DHT22;15917;50.014;8.352;2022-12-29T13:38:21;13.20;99.90
28761;DHT22;15917;50.014;8.352;2022-12-29T13:40:53;13.00;99.90
28761;DHT22;15917;50.014;8.352;2022-12-29T13:43:20;12.80;99.90
28761;DHT22;15917;50.014;8.352;2022-12-29T13:45:55;12.50;99.90
28761;DHT22;15917;50.014;8.352;2022-12-29T13:48:39;12.50;99.90
28761;DHT22;15917;50.014;8.352;2022-12-29T13:51:08;12.50;99.90
28761;DHT22;15917;50.014;8.352;2022-12-29T13:54:04;12.40;99.90
28761;DHT22;15917;50.014;8.352;2022-12-29T14:02:36;12.60;99.90
28761;DHT22;15917;50.014;8.352;2022-12-29T14:07:58;12.50;99.90
28761;DHT22;15917;50.014;8.352;2022-12-29T14:10:37;12.50;99.90
28761;DHT22;15917;50.014;8.352;2022-12-29T14:13:15;12.30;99.90
28761;DHT22;15917;50.014;8.352;2022-12-29T14:15:45;12.30;99.90
28761;DHT22;15917;50.014;8.352;2022-12-29T14:20:39;12.20;99.90
28761;DHT22;15917;50.014;8.352;2022-12-29T14:28:26;12.30;99.90
28761;DHT22;15917;50.014;8.352;2022-12-29T14:30:54;12.20;99.90
28761;DHT22;15917;50.014;8.352;2022-12-29T14:33:21;12.20;99.90
28761;DHT22;15917;50.014;8.352;2022-12-29T14:35:48;12.10;99.90
28761;DHT22;15917;50.014;8.352;2022-12-29T14:38:28;12.10;99.90
28761;DHT22;15917;50.014;8.352;2022-12-29T14:41:16;12.10;99.90
28761;DHT22;15917;50.014;8.352;2022-12-29T14:43:59;12.10;99.90
28761;DHT22;15917;50.014;8.352;2022-12-29T14:46:25;12.10;99.90
28761;DHT22;15917;50.014;8.352;2022-12-29T14:49:15;12.10;99.90
28761;DHT22;15917;50.014;8.352;2022-12-29T14:51:42;12.10;99.90
28761;DHT22;15917;50.014;8.352;2022-12-29T14:56:59;12.10;99.90
28761;DHT22;15917;50.014;8.352;2022-12-29T14:59:26;12.10;99.90
28761;DHT22;15917;50.014;8.352;2022-12-29T15:01:53;12.00;99.90
28761;DHT22;15917;50.014;8.352;2022-12-29T15:04:21;11.90;99.90
28761;DHT22;15917;50.014;8.352;2022-12-29T15:06:49;11.80;99.90
28761;DHT22;15917;50.014;8.352;2022-12-29T15:09:28;11.80;99.90
28761;DHT22;15917;50.014;8.352;2022-12-29T15:12:04;11.70;99.90
28761;DHT22;15917;50.014;8.352;2022-12-29T15:14:39;11.70;99.90
28761;DHT22;15917;50.014;8.352;2022-12-29T15:17:20;11.60;99.90
28761;DHT22;15917;50.014;8.352;2022-12-29T15:19:47;11.60;99.90
28761;DHT22;15917;50.014;8.352;2022-12-29T15:22:12;11.50;99.90
28761;DHT22;15917;50.014;8.352;2022-12-29T15:24:44;11.40;99.90
28761;DHT22;15917;50.014;8.352;2022-12-29T15:27:14;11.40;99.90
28761;DHT22;15917;50.014;8.352;2022-12-29T15:29:42;11.40;99.90
28761;DHT22;15917;50.014;8.352;2022-12-29T15:34:41;11.30;99.90
28761;DHT22;15917;50.014;8.352;2022-12-29T15:37:07;11.30;99.90
28761;DHT22;15917;50.014;8.352;2022-12-29T15:39:33;11.30;99.90
28761;DHT22;15917;50.014;8.352;2022-12-29T15:42:00;11.40;99.90
28761;DHT22;15917;50.014;8.352;2022-12-29T15:44:41;11.30;99.90
28761;DHT22;15917;50.014;8.352;2022-12-29T15:47:18;11.30;99.90
28761;DHT22;15917;50.014;8.352;2022-12-29T15:49:48;11.20;99.90
28761;DHT22;15917;50.014;8.352;2022-12-29T15:52:21;11.20;99.90
28761;DHT22;15917;50.014;8.352;2022-12-29T15:54:50;11.20;99.90
28761;DHT22;15917;50.014;8.352;2022-12-29T15:57:28;11.20;99.90
28761;DHT22;15917;50.014;8.352;2022-12-29T15:59:54;11.20;99.90
28761;DHT22;15917;50.014;8.352;2022-12-29T16:02:22;11.20;99.90
28761;DHT22;15917;50.014;8.352;2022-12-29T16:04:48;11.20;99.90
28761;DHT22;15917;50.014;8.352;2022-12-29T16:07:40;11.10;99.90
28761;DHT22;15917;50.014;8.352;2022-12-29T16:10:25;11.10;99.90
28761;DHT22;15917;50.014;8.352;2022-12-29T16:12:50;11.00;99.90
28761;DHT22;15917;50.014;8.352;2022-12-29T16:15:16;11.00;99.90
28761;DHT22;15917;50.014;8.352;2022-12-29T16:17:50;11.00;99.90
28761;DHT22;15917;50.014;8.352;2022-12-29T16:20:25;11.00;99.90
28761;DHT22;15917;50.014;8.352;2022-12-29T16:22:58;11.00;99.90
28761;DHT22;15917;50.014;8.352;2022-12-29T16:25:34;10.90;99.90
28761;DHT22;15917;50.014;8.352;2022-12-29T16:28:15;10.90;99.90
28761;DHT22;15917;50.014;8.352;2022-12-29T16:30:42;10.80;99.90
28761;DHT22;15917;50.014;8.352;2022-12-29T16:33:45;10.80;99.90
28761;DHT22;15917;50.014;8.352;2022-12-29T16:36:29;10.70;99.90
28761;DHT22;15917;50.014;8.352;2022-12-29T16:41:42;10.60;99.90
28761;DHT22;15917;50.014;8.352;2022-12-29T16:44:17;10.60;99.90
28761;DHT22;15917;50.014;8.352;2022-12-29T16:49:39;10.50;99.90
28761;DHT22;15917;50.014;8.352;2022-12-29T16:52:20;10.50;99.90
28761;DHT22;15917;50.014;8.352;2022-12-29T16:54:56;10.40;99.90
28761;DHT22;15917;50.014;8.352;2022-12-29T16:57:26;10.40;99.90
28761;DHT22;15917;50.014;8.352;2022-12-29T16:59:55;10.30;99.90
28761;DHT22;15917;50.014;8.352;2022-12-29T17:02:25;10.30;99.90
28761;DHT22;15917;50.014;8.352;2022-12-29T17:04:50;10.30;99.90
28761;DHT22;15917;50.014;8.352;2022-12-29T17:07:23;10.30;99.90
28761;DHT22;15917;50.014;8.352;2022-12-29T17:09:49;10.20;99.90
28761;DHT22;15917;50.014;8.352;2022-12-29T17:12:24;10.20;99.90
28761;DHT22;15917;50.014;8.352;2022-12-29T17:14:55;10.20;99.90
28761;DHT22;15917;50.014;8.352;2022-12-29T17:17:34;10.20;99.90
28761;DHT22;15917;50.014;8.352;2022-12-29T17:20:24;10.20;99.90
28761;DHT22;15917;50.014;8.352;2022-12-29T17:22:49;10.20;99.90
28761;DHT22;15917;50.014;8.352;2022-12-29T17:25:18;10.20;99.90
28761;DHT22;15917;50.014;8.352;2022-12-29T17:27:51;10.20;99.90
28761;DHT22;15917;50.014;8.352;2022-12-29T17:30:23;10.20;99.90
28761;DHT22;15917;50.014;8.352;2022-12-29T17:33:09;10.20;99.90
28761;DHT22;15917;50.014;8.352;2022-12-29T17:35:36;10.20;99.90
28761;DHT22;15917;50.014;8.352;2022-12-29T17:38:17;10.20;99.90
28761;DHT22;15917;50.014;8.352;2022-12-29T17:40:43;10.20;99.90
28761;DHT22;15917;50.014;8.352;2022-12-29T17:43:12;10.20;99.90
28761;DHT22;15917;50.014;8.352;2022-12-29T17:45:39;10.20;99.90
28761;DHT22;15917;50.014;8.352;2022-12-29T17:48:15;10.20;99.90
28761;DHT22;15917;50.014;8.352;2022-12-29T17:50:42;10.10;99.90
28761;DHT22;15917;50.014;8.352;2022-12-29T17:53:13;10.10;99.90
28761;DHT22;15917;50.014;8.352;2022-12-29T17:55:40;10.10;99.90
28761;DHT22;15917;50.014;8.352;2022-12-29T18:00:42;10.00;99.90
28761;DHT22;15917;50.014;8.352;2022-12-29T18:03:13;10.00;99.90
28761;DHT22;15917;50.014;8.352;2022-12-29T18:05:38;9.90;99.90
28761;DHT22;15917;50.014;8.352;2022-12-29T18:08:04;9.90;99.90
28761;DHT22;15917;50.014;8.352;2022-12-29T18:10:30;9.80;99.90